sensor_id;sensor_type;location;lat;lon;timestamp;temperature;humidity
16243;DHT22;11719;51.052;6.982;2023-04-24T00:00:55;16.00;99.90
16243;DHT22;11719;51.052;6.982;2023-04-24T00:03:22;16.00;99.90
16243;DHT22;11719;51.052;6.982;2023-04-24T00:05:49;16.00;99.90
16243;DHT22;11719;51.052;6.982;2023-04-24T00:08:15;15.90;99.90
16243;DHT22;11719;51.052;6.982;2023-04-24T00:10:41;16.00;99.90
16243;DHT22;11719;51.052;6.982;2023-04-24T00:13:07;15.80;99.90
16243;DHT22;11719;51.052;6.982;2023-04-24T00:15:33;15.80;99.90
16243;DHT22;11719;51.052;6.982;2023-04-24T00:17:59;15.80;99.90
16243;DHT22;11719;51.052;6.982;2023-04-24T00:20:26;15.80;99.90
16243;DHT22;11719;51.052;6.982;2023-04-24T00:22:55;15.90;99.90
16243;DHT22;11719;51.052;6.982;2023-04-24T00:25:21;16.00;99.90
16243;DHT22;11719;51.052;6.982;2023-04-24T00:27:47;16.00;99.90
16243;DHT22;11719;51.052;6.982;2023-04-24T00:30:13;16.00;99.90
16243;DHT22;11719;51.052;6.982;2023-04-24T00:32:38;16.00;99.90
16243;DHT22;11719;51.052;6.982;2023-04-24T00:35:05;16.10;99.90
16243;DHT22;11719;51.052;6.982;2023-04-24T00:37:31;16.00;99.90
16243;DHT22;11719;51.052;6.982;2023-04-24T00:39:57;15.90;99.90
16243;DHT22;11719;51.052;6.982;2023-04-24T00:42:23;15.90;99.90
16243;DHT22;11719;51.052;6.982;2023-04-24T00:44:49;15.90;99.90
16243;DHT22;11719;51.052;6.982;2023-04-24T00:47:15;15.90;99.90
16243;DHT22;11719;51.052;6.982;2023-04-24T00:49:41;16.00;99.90
16243;DHT22;11719;51.052;6.982;2023-04-24T00:52:07;16.00;99.90
16243;DHT22;11719;51.052;6.982;2023-04-24T00:54:34;16.00;99.90
16243;DHT22;11719;51.052;6.982;2023-04-24T00:57:02;16.10;99.90
16243;DHT22;11719;51.052;6.982;2023-04-24T00:59:29;16.20;99.90
16243;DHT22;11719;51.052;6.982;2023-04-24T01:01:55;16.20;99.90
16243;DHT22;11719;51.052;6.982;2023-04-24T01:04:21;15.90;99.90
16243;DHT22;11719;51.052;6.982;2023-04-24T01:06:48;16.10;99.90
16243;DHT22;11719;51.052;6.982;2023-04-24T01:09:16;16.20;99.90
16243;DHT22;11719;51.052;6.982;2023-04-24T01:11:43;16.10;99.90
16243;DHT22;11719;51.052;6.982;2023-04-24T01:14:09;15.90;99.90
16243;DHT22;11719;51.052;6.982;2023-04-24T01:16:35;15.90;99.90
16243;DHT22;11719;51.052;6.982;2023-04-24T01:19:04;15.80;99.90
16243;DHT22;11719;51.052;6.982;2023-04-24T01:21:36;15.80;99.90
16243;DHT22;11719;51.052;6.982;2023-04-24T01:24:04;15.90;99.90
16243;DHT22;11719;51.052;6.982;2023-04-24T01:26:31;15.80;99.90
16243;DHT22;11719;51.052;6.982;2023-04-24T01:28:57;15.70;99.90
16243;DHT22;11719;51.052;6.982;2023-04-24T01:31:23;15.70;99.90
16243;DHT22;11719;51.052;6.982;2023-04-24T01:33:50;15.70;99.90
16243;DHT22;11719;51.052;6.982;2023-04-24T01:36:17;15.70;99.90
16243;DHT22;11719;51.052;6.982;2023-04-24T01:38:43;15.80;99.90
16243;DHT22;11719;51.052;6.982;2023-04-24T01:41:10;15.80;99.90
16243;DHT22;11719;51.052;6.982;2023-04-24T01:43:35;15.80;99.90
16243;DHT22;11719;51.052;6.982;2023-04-24T01:46:01;15.80;99.90
16243;DHT22;11719;51.052;6.982;2023-04-24T01:48:28;15.90;99.90
16243;DHT22;11719;51.052;6.982;2023-04-24T01:50:54;15.90;99.90
16243;DHT22;11719;51.052;6.982;2023-04-24T01:53:20;15.90;99.90
16243;DHT22;11719;51.052;6.982;2023-04-24T01:55:46;15.80;99.90
16243;DHT22;11719;51.052;6.982;2023-04-24T01:58:12;15.90;99.90
16243;DHT22;11719;51.052;6.982;2023-04-24T02:00:37;15.80;99.90
16243;DHT22;11719;51.052;6.982;2023-04-24T02:03:03;15.90;99.90
16243;DHT22;11719;51.052;6.982;2023-04-24T02:05:29;15.90;99.90
16243;DHT22;11719;51.052;6.982;2023-04-24T02:07:55;15.80;99.90
16243;DHT22;11719;51.052;6.982;2023-04-24T02:10:20;15.90;99.90
16243;DHT22;11719;51.052;6.982;2023-04-24T02:12:46;16.00;99.90
16243;DHT22;11719;51.052;6.982;2023-04-24T02:15:12;16.00;99.90
16243;DHT22;11719;51.052;6.982;2023-04-24T02:17:38;16.00;99.90
16243;DHT22;11719;51.052;6.982;2023-04-24T02:20:06;16.00;99.90
16243;DHT22;11719;51.052;6.982;2023-04-24T02:22:32;16.00;99.90
16243;DHT22;11719;51.052;6.982;2023-04-24T02:24:58;15.90;99.90
16243;DHT22;11719;51.052;6.982;2023-04-24T02:27:24;15.90;99.90
16243;DHT22;11719;51.052;6.982;2023-04-24T02:29:49;15.80;99.90
16243;DHT22;11719;51.052;6.982;2023-04-24T02:32:15;15.70;99.90
16243;DHT22;11719;51.052;6.982;2023-04-24T02:34:41;15.50;99.90
16243;DHT22;11719;51.052;6.982;2023-04-24T02:37:07;15.30;99.90
16243;DHT22;11719;51.052;6.982;2023-04-24T02:39:32;15.10;99.90
16243;DHT22;11719;51.052;6.982;2023-04-24T02:41:58;14.90;99.90
16243;DHT22;11719;51.052;6.982;2023-04-24T02:44:24;14.80;99.90
16243;DHT22;11719;51.052;6.982;2023-04-24T02:46:49;14.70;99.90
16243;DHT22;11719;51.052;6.982;2023-04-24T02:49:15;14.60;99.90
16243;DHT22;11719;51.052;6.982;2023-04-24T02:51:41;14.50;99.90
16243;DHT22;11719;51.052;6.982;2023-04-24T02:54:10;14.40;99.90
16243;DHT22;11719;51.052;6.982;2023-04-24T02:56:36;14.40;99.90
16243;DHT22;11719;51.052;6.982;2023-04-24T02:59:02;14.30;99.90
16243;DHT22;11719;51.052;6.982;2023-04-24T03:01:28;14.30;99.90
16243;DHT22;11719;51.052;6.982;2023-04-24T03:03:54;14.40;99.90
16243;DHT22;11719;51.052;6.982;2023-04-24T03:06:19;14.50;99.90
16243;DHT22;11719;51.052;6.982;2023-04-24T03:08:46;14.60;99.90
16243;DHT22;11719;51.052;6.982;2023-04-24T03:11:12;14.60;99.90
16243;DHT22;11719;51.052;6.982;2023-04-24T03:13:37;14.70;99.90
16243;DHT22;11719;51.052;6.982;2023-04-24T03:16:03;14.60;99.90
16243;DHT22;11719;51.052;6.982;2023-04-24T03:18:29;14.50;99.90
16243;DHT22;11719;51.052;6.982;2023-04-24T03:20:55;14.40;99.90
16243;DHT22;11719;51.052;6.982;2023-04-24T03:23:21;14.40;99.90
16243;DHT22;11719;51.052;6.982;2023-04-24T03:25:46;14.30;99.90
16243;DHT22;11719;51.052;6.982;2023-04-24T03:28:13;14.30;99.90
16243;DHT22;11719;51.052;6.982;2023-04-24T03:30:39;14.30;99.90
16243;DHT22;11719;51.052;6.982;2023-04-24T03:33:05;14.40;99.90
16243;DHT22;11719;51.052;6.982;2023-04-24T03:35:31;14.40;99.90
16243;DHT22;11719;51.052;6.982;2023-04-24T03:37:57;14.40;99.90
16243;DHT22;11719;51.052;6.982;2023-04-24T03:40:23;14.40;99.90
16243;DHT22;11719;51.052;6.982;2023-04-24T03:42:49;14.40;99.90
16243;DHT22;11719;51.052;6.982;2023-04-24T03:45:15;14.40;99.90
16243;DHT22;11719;51.052;6.982;2023-04-24T03:47:40;14.30;99.90
16243;DHT22;11719;51.052;6.982;2023-04-24T03:50:06;14.40;99.90
16243;DHT22;11719;51.052;6.982;2023-04-24T03:52:32;14.40;99.90
16243;DHT22;11719;51.052;6.982;2023-04-24T03:54:58;14.30;99.90
16243;DHT22;11719;51.052;6.982;2023-04-24T03:57:24;14.30;99.90
16243;DHT22;11719;51.052;6.982;2023-04-24T03:59:50;14.30;99.90
16243;DHT22;11719;51.052;6.982;2023-04-24T04:02:16;14.40;99.90
16243;DHT22;11719;51.052;6.982;2023-04-24T04:04:42;14.30;99.90
16243;DHT22;11719;51.052;6.982;2023-04-24T04:07:08;14.40;99.90
16243;DHT22;11719;51.052;6.982;2023-04-24T04:09:34;14.40;99.90
16243;DHT22;11719;51.052;6.982;2023-04-24T04:11:59;14.50;99.90
16243;DHT22;11719;51.052;6.982;2023-04-24T04:14:26;14.50;99.90
16243;DHT22;11719;51.052;6.982;2023-04-24T04:16:52;14.50;99.90
16243;DHT22;11719;51.052;6.982;2023-04-24T04:19:18;14.50;99.90
16243;DHT22;11719;51.052;6.982;2023-04-24T04:21:44;14.40;99.90
16243;DHT22;11719;51.052;6.982;2023-04-24T04:24:11;14.40;99.90
16243;DHT22;11719;51.052;6.982;2023-04-24T04:26:37;14.50;99.90
16243;DHT22;11719;51.052;6.982;2023-04-24T04:29:03;14.60;99.90
16243;DHT22;11719;51.052;6.982;2023-04-24T04:31:29;14.40;99.90
16243;DHT22;11719;51.052;6.982;2023-04-24T04:33:55;14.40;99.90
16243;DHT22;11719;51.052;6.982;2023-04-24T04:36:21;14.40;99.90
16243;DHT22;11719;51.052;6.982;2023-04-24T04:38:49;14.60;99.90
16243;DHT22;11719;51.052;6.982;2023-04-24T04:41:15;14.60;99.90
16243;DHT22;11719;51.052;6.982;2023-04-24T04:43:42;14.60;99.90
16243;DHT22;11719;51.052;6.982;2023-04-24T04:46:08;14.50;99.90
16243;DHT22;11719;51.052;6.982;2023-04-24T04:48:36;14.60;99.90
16243;DHT22;11719;51.052;6.982;2023-04-24T04:51:01;14.60;99.90
16243;DHT22;11719;51.052;6.982;2023-04-24T04:53:27;14.60;99.90
16243;DHT22;11719;51.052;6.982;2023-04-24T04:55:53;14.50;99.90
16243;DHT22;11719;51.052;6.982;2023-04-24T04:58:19;14.60;99.90
16243;DHT22;11719;51.052;6.982;2023-04-24T05:00:45;14.50;99.90
16243;DHT22;11719;51.052;6.982;2023-04-24T05:03:11;14.40;99.90
16243;DHT22;11719;51.052;6.982;2023-04-24T05:05:37;14.40;99.90
16243;DHT22;11719;51.052;6.982;2023-04-24T05:08:06;14.30;99.90
16243;DHT22;11719;51.052;6.982;2023-04-24T05:10:35;14.30;99.90
16243;DHT22;11719;51.052;6.982;2023-04-24T05:13:02;14.30;99.90
16243;DHT22;11719;51.052;6.982;2023-04-24T05:15:29;14.30;99.90
16243;DHT22;11719;51.052;6.982;2023-04-24T05:17:55;14.40;99.90
16243;DHT22;11719;51.052;6.982;2023-04-24T05:20:22;14.30;99.90
16243;DHT22;11719;51.052;6.982;2023-04-24T05:22:48;14.30;99.90
16243;DHT22;11719;51.052;6.982;2023-04-24T05:25:14;14.30;99.90
16243;DHT22;11719;51.052;6.982;2023-04-24T05:27:40;14.40;99.90
16243;DHT22;11719;51.052;6.982;2023-04-24T05:30:06;14.40;99.90
16243;DHT22;11719;51.052;6.982;2023-04-24T05:32:33;14.50;99.90
16243;DHT22;11719;51.052;6.982;2023-04-24T05:34:58;14.40;99.90
16243;DHT22;11719;51.052;6.982;2023-04-24T05:37:24;14.40;99.90
16243;DHT22;11719;51.052;6.982;2023-04-24T05:39:50;14.40;99.90
16243;DHT22;11719;51.052;6.982;2023-04-24T05:42:16;14.40;99.90
16243;DHT22;11719;51.052;6.982;2023-04-24T05:44:41;14.50;99.90
16243;DHT22;11719;51.052;6.982;2023-04-24T05:47:07;14.50;99.90
16243;DHT22;11719;51.052;6.982;2023-04-24T05:49:34;14.50;99.90
16243;DHT22;11719;51.052;6.982;2023-04-24T05:51:59;14.30;99.90
16243;DHT22;11719;51.052;6.982;2023-04-24T05:54:25;14.30;99.90
16243;DHT22;11719;51.052;6.982;2023-04-24T05:56:51;14.20;99.90
16243;DHT22;11719;51.052;6.982;2023-04-24T05:59:17;14.20;99.90
16243;DHT22;11719;51.052;6.982;2023-04-24T06:01:42;14.10;99.90
16243;DHT22;11719;51.052;6.982;2023-04-24T06:04:08;14.10;99.90
16243;DHT22;11719;51.052;6.982;2023-04-24T06:06:35;14.20;99.90
16243;DHT22;11719;51.052;6.982;2023-04-24T06:09:01;14.00;99.90
16243;DHT22;11719;51.052;6.982;2023-04-24T06:11:28;14.00;99.90
16243;DHT22;11719;51.052;6.982;2023-04-24T06:13:54;14.10;99.90
16243;DHT22;11719;51.052;6.982;2023-04-24T06:16:19;14.00;99.90
16243;DHT22;11719;51.052;6.982;2023-04-24T06:18:45;13.80;99.90
16243;DHT22;11719;51.052;6.982;2023-04-24T06:21:12;13.90;99.90
16243;DHT22;11719;51.052;6.982;2023-04-24T06:23:38;14.10;99.90
16243;DHT22;11719;51.052;6.982;2023-04-24T06:26:04;14.10;99.90
16243;DHT22;11719;51.052;6.982;2023-04-24T06:28:30;14.20;99.90
16243;DHT22;11719;51.052;6.982;2023-04-24T06:30:55;14.20;99.90
16243;DHT22;11719;51.052;6.982;2023-04-24T06:33:21;14.10;99.90
16243;DHT22;11719;51.052;6.982;2023-04-24T06:35:47;14.00;99.90
16243;DHT22;11719;51.052;6.982;2023-04-24T06:38:12;14.20;99.90
16243;DHT22;11719;51.052;6.982;2023-04-24T06:40:38;14.10;99.90
16243;DHT22;11719;51.052;6.982;2023-04-24T06:43:04;14.20;99.90
16243;DHT22;11719;51.052;6.982;2023-04-24T06:45:31;14.10;99.90
16243;DHT22;11719;51.052;6.982;2023-04-24T06:47:57;13.90;99.90
16243;DHT22;11719;51.052;6.982;2023-04-24T06:50:23;14.00;99.90
16243;DHT22;11719;51.052;6.982;2023-04-24T06:52:49;14.10;99.90
16243;DHT22;11719;51.052;6.982;2023-04-24T06:55:15;14.20;99.90
16243;DHT22;11719;51.052;6.982;2023-04-24T06:57:42;14.20;99.90
16243;DHT22;11719;51.052;6.982;2023-04-24T07:00:08;14.20;99.90
16243;DHT22;11719;51.052;6.982;2023-04-24T07:02:35;14.10;99.90
16243;DHT22;11719;51.052;6.982;2023-04-24T07:05:00;14.10;99.90
16243;DHT22;11719;51.052;6.982;2023-04-24T07:07:27;14.00;99.90
16243;DHT22;11719;51.052;6.982;2023-04-24T07:09:53;13.80;99.90
16243;DHT22;11719;51.052;6.982;2023-04-24T07:12:19;13.80;99.90
16243;DHT22;11719;51.052;6.982;2023-04-24T07:14:47;13.90;99.90
16243;DHT22;11719;51.052;6.982;2023-04-24T07:17:13;14.00;99.90
16243;DHT22;11719;51.052;6.982;2023-04-24T07:19:39;14.00;99.90
16243;DHT22;11719;51.052;6.982;2023-04-24T07:22:05;14.20;99.90
16243;DHT22;11719;51.052;6.982;2023-04-24T07:24:30;14.10;99.90
16243;DHT22;11719;51.052;6.982;2023-04-24T07:26:58;13.90;99.90
16243;DHT22;11719;51.052;6.982;2023-04-24T07:29:24;14.00;99.90
16243;DHT22;11719;51.052;6.982;2023-04-24T07:31:50;13.90;99.90
16243;DHT22;11719;51.052;6.982;2023-04-24T07:34:16;13.90;99.90
16243;DHT22;11719;51.052;6.982;2023-04-24T07:36:42;14.00;99.90
16243;DHT22;11719;51.052;6.982;2023-04-24T07:39:08;13.90;99.90
16243;DHT22;11719;51.052;6.982;2023-04-24T07:41:34;14.10;99.90
16243;DHT22;11719;51.052;6.982;2023-04-24T07:44:00;14.20;99.90
16243;DHT22;11719;51.052;6.982;2023-04-24T07:46:26;14.40;99.90
16243;DHT22;11719;51.052;6.982;2023-04-24T07:48:55;14.40;99.90
16243;DHT22;11719;51.052;6.982;2023-04-24T07:51:21;14.40;99.90
16243;DHT22;11719;51.052;6.982;2023-04-24T07:53:47;14.50;99.90
16243;DHT22;11719;51.052;6.982;2023-04-24T07:56:12;14.40;99.90
16243;DHT22;11719;51.052;6.982;2023-04-24T07:58:38;14.20;99.90
16243;DHT22;11719;51.052;6.982;2023-04-24T08:01:04;14.00;99.90
16243;DHT22;11719;51.052;6.982;2023-04-24T08:03:30;14.00;99.90
16243;DHT22;11719;51.052;6.982;2023-04-24T08:05:56;13.80;99.90
16243;DHT22;11719;51.052;6.982;2023-04-24T08:08:22;13.90;99.90
16243;DHT22;11719;51.052;6.982;2023-04-24T08:10:48;14.10;99.90
16243;DHT22;11719;51.052;6.982;2023-04-24T08:13:15;13.90;99.90
16243;DHT22;11719;51.052;6.982;2023-04-24T08:15:40;13.80;99.90
16243;DHT22;11719;51.052;6.982;2023-04-24T08:18:07;13.90;99.90
16243;DHT22;11719;51.052;6.982;2023-04-24T08:20:32;14.10;99.90
16243;DHT22;11719;51.052;6.982;2023-04-24T08:22:58;14.10;99.90
16243;DHT22;11719;51.052;6.982;2023-04-24T08:25:24;14.00;99.90
16243;DHT22;11719;51.052;6.982;2023-04-24T08:27:51;13.90;99.90
16243;DHT22;11719;51.052;6.982;2023-04-24T08:30:17;13.70;99.90
16243;DHT22;11719;51.052;6.982;2023-04-24T08:32:43;13.50;99.90
16243;DHT22;11719;51.052;6.982;2023-04-24T08:35:09;13.40;99.90
16243;DHT22;11719;51.052;6.982;2023-04-24T08:37:37;13.30;99.90
16243;DHT22;11719;51.052;6.982;2023-04-24T08:40:12;13.10;99.90
16243;DHT22;11719;51.052;6.982;2023-04-24T08:42:39;13.40;99.90
16243;DHT22;11719;51.052;6.982;2023-04-24T08:45:08;13.70;99.90
16243;DHT22;11719;51.052;6.982;2023-04-24T08:47:36;13.40;99.90
16243;DHT22;11719;51.052;6.982;2023-04-24T08:50:04;13.40;99.90
16243;DHT22;11719;51.052;6.982;2023-04-24T08:52:32;13.50;99.90
16243;DHT22;11719;51.052;6.982;2023-04-24T08:55:00;13.50;99.90
16243;DHT22;11719;51.052;6.982;2023-04-24T08:57:26;13.40;99.90
16243;DHT22;11719;51.052;6.982;2023-04-24T08:59:53;13.20;99.90
16243;DHT22;11719;51.052;6.982;2023-04-24T09:02:20;13.00;99.90
16243;DHT22;11719;51.052;6.982;2023-04-24T09:04:47;12.90;99.90
16243;DHT22;11719;51.052;6.982;2023-04-24T09:07:14;12.80;99.90
16243;DHT22;11719;51.052;6.982;2023-04-24T09:09:42;13.00;99.90
16243;DHT22;11719;51.052;6.982;2023-04-24T09:12:08;13.20;99.90
16243;DHT22;11719;51.052;6.982;2023-04-24T09:14:36;13.10;99.90
16243;DHT22;11719;51.052;6.982;2023-04-24T09:17:06;13.20;99.90
16243;DHT22;11719;51.052;6.982;2023-04-24T09:19:31;13.10;99.90
16243;DHT22;11719;51.052;6.982;2023-04-24T09:21:57;13.00;99.90
16243;DHT22;11719;51.052;6.982;2023-04-24T09:24:23;12.70;99.90
16243;DHT22;11719;51.052;6.982;2023-04-24T09:26:55;12.50;99.90
16243;DHT22;11719;51.052;6.982;2023-04-24T09:29:27;12.20;99.90
16243;DHT22;11719;51.052;6.982;2023-04-24T09:31:53;12.20;99.90
16243;DHT22;11719;51.052;6.982;2023-04-24T09:34:27;12.20;99.90
16243;DHT22;11719;51.052;6.982;2023-04-24T09:36:54;12.10;99.90
16243;DHT22;11719;51.052;6.982;2023-04-24T09:39:20;12.10;99.90
16243;DHT22;11719;51.052;6.982;2023-04-24T09:41:49;11.90;99.90
16243;DHT22;11719;51.052;6.982;2023-04-24T09:44:21;11.80;99.90
16243;DHT22;11719;51.052;6.982;2023-04-24T09:46:55;11.70;99.90
16243;DHT22;11719;51.052;6.982;2023-04-24T09:49:27;11.70;99.90
16243;DHT22;11719;51.052;6.982;2023-04-24T09:52:10;11.60;99.90
16243;DHT22;11719;51.052;6.982;2023-04-24T09:54:36;11.80;99.90
16243;DHT22;11719;51.052;6.982;2023-04-24T09:57:03;12.00;99.90
16243;DHT22;11719;51.052;6.982;2023-04-24T09:59:29;12.00;99.90
16243;DHT22;11719;51.052;6.982;2023-04-24T10:01:55;12.20;99.90
16243;DHT22;11719;51.052;6.982;2023-04-24T10:04:25;12.20;99.90
16243;DHT22;11719;51.052;6.982;2023-04-24T10:06:55;12.40;99.90
16243;DHT22;11719;51.052;6.982;2023-04-24T10:09:23;12.60;99.90
16243;DHT22;11719;51.052;6.982;2023-04-24T10:11:52;13.00;99.90
16243;DHT22;11719;51.052;6.982;2023-04-24T10:14:22;13.10;99.90
16243;DHT22;11719;51.052;6.982;2023-04-24T10:16:49;13.20;99.90
16243;DHT22;11719;51.052;6.982;2023-04-24T10:19:17;13.20;99.90
16243;DHT22;11719;51.052;6.982;2023-04-24T10:21:46;13.10;99.90
16243;DHT22;11719;51.052;6.982;2023-04-24T10:24:13;13.10;99.90
16243;DHT22;11719;51.052;6.982;2023-04-24T10:26:41;13.30;99.90
16243;DHT22;11719;51.052;6.982;2023-04-24T10:29:08;13.40;99.90
16243;DHT22;11719;51.052;6.982;2023-04-24T10:31:37;13.50;99.90
16243;DHT22;11719;51.052;6.982;2023-04-24T10:34:08;13.60;99.90
16243;DHT22;11719;51.052;6.982;2023-04-24T10:36:36;13.60;99.90
16243;DHT22;11719;51.052;6.982;2023-04-24T10:39:09;13.50;99.90
16243;DHT22;11719;51.052;6.982;2023-04-24T10:41:38;13.50;99.90
16243;DHT22;11719;51.052;6.982;2023-04-24T10:44:14;13.30;99.90
16243;DHT22;11719;51.052;6.982;2023-04-24T10:46:46;13.30;99.90
16243;DHT22;11719;51.052;6.982;2023-04-24T10:49:13;13.20;99.90
16243;DHT22;11719;51.052;6.982;2023-04-24T10:51:50;13.20;99.90
16243;DHT22;11719;51.052;6.982;2023-04-24T10:59:47;13.40;99.90
16243;DHT22;11719;51.052;6.982;2023-04-24T11:02:17;13.20;99.90
16243;DHT22;11719;51.052;6.982;2023-04-24T11:04:44;13.00;99.90
16243;DHT22;11719;51.052;6.982;2023-04-24T11:07:10;13.00;99.90
16243;DHT22;11719;51.052;6.982;2023-04-24T11:09:37;13.10;99.90
16243;DHT22;11719;51.052;6.982;2023-04-24T11:12:10;12.90;99.90
16243;DHT22;11719;51.052;6.982;2023-04-24T11:17:37;12.70;99.90
16243;DHT22;11719;51.052;6.982;2023-04-24T11:20:10;12.70;99.90
16243;DHT22;11719;51.052;6.982;2023-04-24T11:22:38;12.50;99.90
16243;DHT22;11719;51.052;6.982;2023-04-24T11:25:08;12.60;99.90
16243;DHT22;11719;51.052;6.982;2023-04-24T11:27:44;12.60;99.90
16243;DHT22;11719;51.052;6.982;2023-04-24T11:30:18;12.60;99.90
16243;DHT22;11719;51.052;6.982;2023-04-24T11:32:49;12.80;99.90
16243;DHT22;11719;51.052;6.982;2023-04-24T11:35:23;12.80;99.90
16243;DHT22;11719;51.052;6.982;2023-04-24T11:37:54;13.00;99.90
16243;DHT22;11719;51.052;6.982;2023-04-24T11:40:22;12.90;99.90
16243;DHT22;11719;51.052;6.982;2023-04-24T11:42:50;12.90;99.90
16243;DHT22;11719;51.052;6.982;2023-04-24T11:45:17;12.80;99.90
16243;DHT22;11719;51.052;6.982;2023-04-24T11:47:50;12.90;99.90
16243;DHT22;11719;51.052;6.982;2023-04-24T11:50:18;12.70;99.90
16243;DHT22;11719;51.052;6.982;2023-04-24T11:52:46;12.60;99.90
16243;DHT22;11719;51.052;6.982;2023-04-24T11:57:46;12.70;99.90
16243;DHT22;11719;51.052;6.982;2023-04-24T12:00:18;13.00;99.90
16243;DHT22;11719;51.052;6.982;2023-04-24T12:02:49;13.20;99.90
16243;DHT22;11719;51.052;6.982;2023-04-24T12:05:26;13.30;99.90
16243;DHT22;11719;51.052;6.982;2023-04-24T12:07:53;13.40;99.90
16243;DHT22;11719;51.052;6.982;2023-04-24T12:10:28;13.30;99.90
16243;DHT22;11719;51.052;6.982;2023-04-24T12:12:56;13.20;99.90
16243;DHT22;11719;51.052;6.982;2023-04-24T12:15:23;13.20;99.90
16243;DHT22;11719;51.052;6.982;2023-04-24T12:17:53;13.20;99.90
16243;DHT22;11719;51.052;6.982;2023-04-24T12:20:28;13.40;99.90
16243;DHT22;11719;51.052;6.982;2023-04-24T12:22:57;13.30;99.90
16243;DHT22;11719;51.052;6.982;2023-04-24T12:27:57;13.00;99.90
16243;DHT22;11719;51.052;6.982;2023-04-24T12:30:44;13.10;99.90
16243;DHT22;11719;51.052;6.982;2023-04-24T12:33:18;13.00;99.90
16243;DHT22;11719;51.052;6.982;2023-04-24T12:35:45;12.90;99.90
16243;DHT22;11719;51.052;6.982;2023-04-24T12:38:12;12.80;99.90
16243;DHT22;11719;51.052;6.982;2023-04-24T12:40:39;12.90;99.90
16243;DHT22;11719;51.052;6.982;2023-04-24T12:43:17;12.80;99.90
16243;DHT22;11719;51.052;6.982;2023-04-24T12:45:44;12.90;99.90
16243;DHT22;11719;51.052;6.982;2023-04-24T12:48:11;13.10;99.90
16243;DHT22;11719;51.052;6.982;2023-04-24T12:50:38;13.30;99.90
16243;DHT22;11719;51.052;6.982;2023-04-24T12:53:04;13.30;99.90
16243;DHT22;11719;51.052;6.982;2023-04-24T12:55:30;13.40;99.90
16243;DHT22;11719;51.052;6.982;2023-04-24T12:57:55;13.50;99.90
16243;DHT22;11719;51.052;6.982;2023-04-24T13:00:21;13.50;99.90
16243;DHT22;11719;51.052;6.982;2023-04-24T13:02:47;13.40;99.90
16243;DHT22;11719;51.052;6.982;2023-04-24T13:05:13;13.40;99.90
16243;DHT22;11719;51.052;6.982;2023-04-24T13:07:39;13.50;99.90
16243;DHT22;11719;51.052;6.982;2023-04-24T13:10:05;13.60;99.90
16243;DHT22;11719;51.052;6.982;2023-04-24T13:12:32;13.70;99.90
16243;DHT22;11719;51.052;6.982;2023-04-24T13:14:58;13.70;99.90
16243;DHT22;11719;51.052;6.982;2023-04-24T13:17:24;13.70;99.90
16243;DHT22;11719;51.052;6.982;2023-04-24T13:19:51;13.80;99.90
16243;DHT22;11719;51.052;6.982;2023-04-24T13:22:17;13.80;99.90
16243;DHT22;11719;51.052;6.982;2023-04-24T13:24:47;13.90;99.90
16243;DHT22;11719;51.052;6.982;2023-04-24T13:27:16;13.90;99.90
16243;DHT22;11719;51.052;6.982;2023-04-24T13:29:42;13.80;99.90
16243;DHT22;11719;51.052;6.982;2023-04-24T13:32:08;13.80;99.90
16243;DHT22;11719;51.052;6.982;2023-04-24T13:34:35;13.60;99.90
16243;DHT22;11719;51.052;6.982;2023-04-24T13:37:02;13.60;99.90
16243;DHT22;11719;51.052;6.982;2023-04-24T13:39:29;13.70;99.90
16243;DHT22;11719;51.052;6.982;2023-04-24T13:41:55;13.80;99.90
16243;DHT22;11719;51.052;6.982;2023-04-24T13:44:21;13.80;99.90
16243;DHT22;11719;51.052;6.982;2023-04-24T13:46:50;13.80;99.90
16243;DHT22;11719;51.052;6.982;2023-04-24T13:49:18;13.70;99.90
16243;DHT22;11719;51.052;6.982;2023-04-24T13:51:44;13.50;99.90
16243;DHT22;11719;51.052;6.982;2023-04-24T13:54:11;13.40;99.90
16243;DHT22;11719;51.052;6.982;2023-04-24T13:56:37;13.50;99.90
16243;DHT22;11719;51.052;6.982;2023-04-24T13:59:02;13.60;99.90
16243;DHT22;11719;51.052;6.982;2023-04-24T14:01:28;13.80;99.90
16243;DHT22;11719;51.052;6.982;2023-04-24T14:03:55;13.70;99.90
16243;DHT22;11719;51.052;6.982;2023-04-24T14:06:21;13.50;99.90
16243;DHT22;11719;51.052;6.982;2023-04-24T14:08:49;13.50;99.90
16243;DHT22;11719;51.052;6.982;2023-04-24T14:11:16;13.50;99.90
16243;DHT22;11719;51.052;6.982;2023-04-24T14:13:42;13.40;99.90
16243;DHT22;11719;51.052;6.982;2023-04-24T14:16:09;13.70;99.90
16243;DHT22;11719;51.052;6.982;2023-04-24T14:18:35;13.80;99.90
16243;DHT22;11719;51.052;6.982;2023-04-24T14:21:04;14.00;99.90
16243;DHT22;11719;51.052;6.982;2023-04-24T14:23:30;14.00;99.90
16243;DHT22;11719;51.052;6.982;2023-04-24T14:25:57;14.10;99.90
16243;DHT22;11719;51.052;6.982;2023-04-24T14:28:24;14.00;99.90
16243;DHT22;11719;51.052;6.982;2023-04-24T14:30:50;14.10;99.90
16243;DHT22;11719;51.052;6.982;2023-04-24T14:33:16;14.10;99.90
16243;DHT22;11719;51.052;6.982;2023-04-24T14:35:42;14.20;99.90
16243;DHT22;11719;51.052;6.982;2023-04-24T14:38:09;14.30;99.90
16243;DHT22;11719;51.052;6.982;2023-04-24T14:40:35;14.40;99.90
16243;DHT22;11719;51.052;6.982;2023-04-24T14:43:01;14.40;99.90
16243;DHT22;11719;51.052;6.982;2023-04-24T14:45:27;14.20;99.90
16243;DHT22;11719;51.052;6.982;2023-04-24T14:47:53;14.00;99.90
16243;DHT22;11719;51.052;6.982;2023-04-24T14:50:20;14.00;99.90
16243;DHT22;11719;51.052;6.982;2023-04-24T14:52:46;13.90;99.90
16243;DHT22;11719;51.052;6.982;2023-04-24T14:55:12;13.90;99.90
16243;DHT22;11719;51.052;6.982;2023-04-24T14:57:38;13.80;99.90
16243;DHT22;11719;51.052;6.982;2023-04-24T15:00:07;13.80;99.90
16243;DHT22;11719;51.052;6.982;2023-04-24T15:02:35;14.00;99.90
16243;DHT22;11719;51.052;6.982;2023-04-24T15:05:05;14.10;99.90
16243;DHT22;11719;51.052;6.982;2023-04-24T15:07:32;14.20;99.90
16243;DHT22;11719;51.052;6.982;2023-04-24T15:09:58;14.00;99.90
16243;DHT22;11719;51.052;6.982;2023-04-24T15:12:24;14.00;99.90
16243;DHT22;11719;51.052;6.982;2023-04-24T15:14:50;14.20;99.90
16243;DHT22;11719;51.052;6.982;2023-04-24T15:17:16;14.50;99.90
16243;DHT22;11719;51.052;6.982;2023-04-24T15:19:41;14.90;99.90
16243;DHT22;11719;51.052;6.982;2023-04-24T15:22:07;14.90;99.90
16243;DHT22;11719;51.052;6.982;2023-04-24T15:24:33;14.80;99.90
16243;DHT22;11719;51.052;6.982;2023-04-24T15:26:59;14.70;99.90
16243;DHT22;11719;51.052;6.982;2023-04-24T15:29:27;14.60;99.90
16243;DHT22;11719;51.052;6.982;2023-04-24T15:31:53;14.40;99.90
16243;DHT22;11719;51.052;6.982;2023-04-24T15:34:19;14.40;99.90
16243;DHT22;11719;51.052;6.982;2023-04-24T15:36:44;14.40;99.90
16243;DHT22;11719;51.052;6.982;2023-04-24T15:39:10;14.40;99.90
16243;DHT22;11719;51.052;6.982;2023-04-24T15:41:36;14.40;99.90